Time;durP1;ratioP1;P1;durP2;ratioP2;P2;SDS_P1;SDS_P2;PMS_P1;PMS_P2;Temp;Humidity;BMP_temperature;BMP_pressure;BME280_temperature;BME280_humidity;BME280_pressure;Samples;Min_cycle;Max_cycle;Signal;HPM_P1;HPM_P2
2022/03/03 00:01:00;;;;;;;59.55;24.80;;;;;;;6.83;41.86;101887.13;4989382;28;100299;-80
2022/03/03 00:03:26;;;;;;;56.33;25.23;;;;;;;6.87;41.44;101879.22;4981777;28;99291;-81
2022/03/03 00:05:56;;;;;;;60.47;25.30;;;;;;;6.66;42.13;101885.38;4988945;28;98367;-80
2022/03/03 00:08:22;;;;;;;56.00;23.98;;;;;;;6.74;42.50;101882.75;4996679;28;97230;-83
2022/03/03 00:10:51;;;;;;;53.33;23.95;;;;;;;6.50;43.32;101874.91;4992103;28;96793;-81
2022/03/03 00:13:17;;;;;;;54.78;25.65;;;;;;;6.66;43.02;101879.25;4994338;28;100136;-81
2022/03/03 00:15:44;;;;;;;53.22;24.77;;;;;;;6.64;42.94;101881.88;4989455;28;99264;-80
2022/03/03 00:18:11;;;;;;;59.70;24.20;;;;;;;6.53;42.89;101872.25;4988343;28;98621;-80
2022/03/03 00:20:37;;;;;;;55.65;23.73;;;;;;;6.21;43.99;101874.91;4988118;28;96851;-80
2022/03/03 00:23:04;;;;;;;54.15;25.17;;;;;;;6.66;43.23;101880.13;4992536;28;99203;-80
2022/03/03 00:25:36;;;;;;;57.35;24.48;;;;;;;6.32;43.55;101878.38;5001320;28;99274;-80
2022/03/03 00:28:05;;;;;;;48.70;24.08;;;;;;;6.39;43.22;101870.50;4998256;28;98548;-79
2022/03/03 00:30:32;;;;;;;57.00;24.83;;;;;;;6.32;43.35;101867.88;4998521;28;96767;-78
2022/03/03 00:33:05;;;;;;;58.88;25.70;;;;;;;6.39;43.29;101872.25;4997567;28;99344;-79
2022/03/03 00:35:32;;;;;;;56.80;25.08;;;;;;;6.19;43.69;101867.03;5004853;28;99534;-80
2022/03/03 00:38:00;;;;;;;50.95;23.52;;;;;;;6.21;43.94;101864.41;5009746;28;96868;-79
2022/03/03 00:40:32;;;;;;;53.78;24.92;;;;;;;6.30;43.89;101867.03;5016122;28;97295;-78
2022/03/03 00:43:00;;;;;;;58.53;25.48;;;;;;;6.55;42.85;101862.63;5009186;28;99546;-81
2022/03/03 00:45:36;;;;;;;57.15;26.02;;;;;;;6.55;43.34;101857.38;5010574;28;96753;-78
2022/03/03 00:48:04;;;;;;;50.55;23.98;;;;;;;6.44;43.34;101865.25;5012417;28;98112;-79
2022/03/03 00:50:34;;;;;;;55.92;23.98;;;;;;;6.14;43.62;101858.28;5015065;28;98550;-80
2022/03/03 00:53:04;;;;;;;55.33;24.33;;;;;;;6.32;43.59;101857.38;5013129;28;98156;-79
2022/03/03 00:55:31;;;;;;;56.55;23.92;;;;;;;6.57;43.09;101863.50;5014211;27;98062;-78
2022/03/03 00:58:00;;;;;;;50.25;25.35;;;;;;;6.87;42.42;101860.81;5011752;28;96538;-80
2022/03/03 01:00:28;;;;;;;56.40;24.55;;;;;;;7.21;41.01;101882.63;5013424;28;97381;-80
2022/03/03 01:02:55;;;;;;;54.45;24.27;;;;;;;7.22;41.16;101881.72;5013827;27;96943;-81
2022/03/03 01:05:22;;;;;;;52.80;24.98;;;;;;;7.10;41.08;101874.75;5013513;27;97792;-80
2022/03/03 01:07:49;;;;;;;50.38;24.13;;;;;;;6.69;42.00;101869.63;5011274;28;97102;-81
2022/03/03 01:10:18;;;;;;;52.13;24.48;;;;;;;6.82;41.63;101862.59;5007799;28;96645;-81
2022/03/03 01:12:46;;;;;;;58.58;24.58;;;;;;;6.88;41.84;101854.69;5009555;28;97815;-79
2022/03/03 01:15:14;;;;;;;49.85;25.23;;;;;;;6.80;42.98;101851.19;5000407;28;98891;-81
2022/03/03 01:17:43;;;;;;;52.97;24.90;;;;;;;6.31;44.11;101850.38;4996323;28;96682;-81
2022/03/03 01:20:12;;;;;;;58.03;24.15;;;;;;;6.17;44.78;101846.91;4995932;28;96869;-81
2022/03/03 01:22:39;;;;;;;51.20;24.33;;;;;;;6.10;45.15;101845.16;4996845;28;98997;-81
2022/03/03 01:25:07;;;;;;;57.47;25.23;;;;;;;6.17;45.17;101846.91;5002390;28;100949;-81
2022/03/03 01:27:34;;;;;;;54.33;24.02;;;;;;;6.15;45.09;101835.53;5008443;28;96625;-81
2022/03/03 01:30:02;;;;;;;59.17;25.88;;;;;;;6.23;45.19;101836.41;5000510;28;97241;-81
2022/03/03 01:32:33;;;;;;;59.53;25.92;;;;;;;6.30;44.66;101836.38;4995151;28;99354;-80
2022/03/03 01:35:05;;;;;;;63.30;26.25;;;;;;;6.37;44.50;101845.13;5007466;28;98539;-81
2022/03/03 01:37:35;;;;;;;55.47;25.05;;;;;;;6.83;43.37;101843.28;5014380;28;97236;-79
2022/03/03 01:40:04;;;;;;;55.15;25.75;;;;;;;6.93;43.12;101841.53;5006322;28;96617;-79
2022/03/03 01:42:42;;;;;;;56.78;24.98;;;;;;;7.07;42.64;101832.72;5007210;28;100939;-79
2022/03/03 01:45:13;;;;;;;58.08;25.90;;;;;;;6.85;42.76;101828.41;5002769;28;99431;-80
2022/03/03 01:47:53;;;;;;;52.05;25.30;;;;;;;7.09;41.81;101837.94;5002030;28;96754;-80
2022/03/03 01:50:24;;;;;;;57.35;25.05;;;;;;;6.84;42.60;101839.78;5010052;28;96783;-79
2022/03/03 01:52:53;;;;;;;54.60;25.63;;;;;;;6.10;42.23;101845.16;5007184;28;99638;-80
2022/03/03 01:55:27;;;;;;;51.08;23.00;;;;;;;5.51;43.56;101848.53;5008888;28;100783;-79
2022/03/03 01:58:01;;;;;;;50.25;23.48;;;;;;;4.77;45.42;101836.00;5004279;28;96855;-80
2022/03/03 02:00:36;;;;;;;49.40;21.00;;;;;;;4.88;44.58;101844.78;5005072;28;98412;-80
2022/03/03 02:03:06;;;;;;;55.00;22.00;;;;;;;4.94;44.56;101843.94;4995394;28;99869;-80
2022/03/03 02:06:05;;;;;;;47.35;21.17;;;;;;;5.28;44.42;101847.56;4997403;28;99895;-80
2022/03/03 02:08:37;;;;;;;46.67;21.80;;;;;;;5.79;43.14;101842.47;5002876;28;97004;-81
2022/03/03 02:11:30;;;;;;;48.00;22.13;;;;;;;5.98;42.71;101844.25;5001798;28;96653;-81
2022/03/03 02:14:05;;;;;;;51.53;22.95;;;;;;;6.50;41.45;101843.41;5001901;28;100717;-81
2022/03/03 02:16:44;;;;;;;52.05;21.33;;;;;;;6.68;40.96;101836.34;4991397;28;99267;-81
2022/03/03 02:22:25;;;;;;;44.20;21.33;;;;;;;7.30;39.41;101822.09;4998447;22;100548;-77
2022/03/03 02:24:55;;;;;;;44.53;21.83;;;;;;;7.16;39.40;101823.91;4961710;28;99696;-77
2022/03/03 02:27:25;;;;;;;44.53;22.42;;;;;;;7.04;40.08;101829.22;4964864;28;98843;-77
2022/03/03 02:29:52;;;;;;;51.00;22.33;;;;;;;7.03;39.97;101824.84;4974105;28;97305;-78
2022/03/03 02:32:19;;;;;;;41.42;21.40;;;;;;;7.02;40.20;101815.22;4963876;28;96802;-77
2022/03/03 02:34:49;;;;;;;51.15;22.65;;;;;;;6.59;41.82;101827.59;4966118;28;101912;-77
2022/03/03 02:37:18;;;;;;;44.83;21.80;;;;;;;6.83;41.46;101831.94;4983773;28;98694;-77
2022/03/03 02:39:49;;;;;;;48.47;22.48;;;;;;;7.30;40.39;101827.34;4978273;28;96414;-77
2022/03/03 02:42:19;;;;;;;51.20;22.40;;;;;;;7.33;40.02;101826.47;4963353;28;98670;-73
2022/03/03 02:44:46;;;;;;;42.55;21.50;;;;;;;7.63;39.42;101814.88;4953266;28;100630;-75
2022/03/03 02:47:13;;;;;;;49.92;23.10;;;;;;;6.77;40.75;101815.28;4956529;28;99371;-75
2022/03/03 02:49:39;;;;;;;48.38;22.33;;;;;;;6.99;40.47;101799.47;4968031;28;98688;-73
2022/03/03 02:52:06;;;;;;;51.20;23.15;;;;;;;6.65;41.67;101804.81;4972057;28;97234;-75
2022/03/03 02:54:32;;;;;;;43.83;21.63;;;;;;;6.68;41.78;101789.06;4969177;28;97941;-75
2022/03/03 02:59:44;;;;;;;47.10;21.55;;;;;;;6.45;41.88;101780.34;4981365;28;96871;-75
2022/03/03 03:02:11;;;;;;;52.28;22.60;;;;;;;6.50;41.63;101772.50;4972494;28;97157;-74
2022/03/03 03:04:40;;;;;;;80.55;23.20;;;;;;;6.29;42.33;101769.03;4971983;28;99017;-75
2022/03/03 03:07:10;;;;;;;45.05;21.90;;;;;;;6.56;41.79;101780.34;4973536;28;102177;-74
2022/03/03 03:09:36;;;;;;;47.67;21.70;;;;;;;6.69;41.38;101788.19;4973022;28;97221;-75
2022/03/03 03:12:06;;;;;;;46.92;21.45;;;;;;;6.45;41.87;101775.13;4978496;28;98501;-75
2022/03/03 03:14:33;;;;;;;43.97;21.40;;;;;;;6.64;41.37;101776.81;4982110;28;98881;-75
2022/03/03 03:17:05;;;;;;;47.35;22.17;;;;;;;6.70;41.25;101776.78;4980309;28;101939;-76
2022/03/03 03:19:34;;;;;;;46.83;22.00;;;;;;;6.64;42.15;101765.44;4973312;28;98588;-76
2022/03/03 03:22:02;;;;;;;41.83;21.17;;;;;;;6.64;42.24;101768.94;4975351;28;96915;-76
2022/03/03 03:24:29;;;;;;;52.75;22.67;;;;;;;6.99;40.70;101757.41;4975910;28;100320;-76
2022/03/03 03:26:56;;;;;;;40.45;21.50;;;;;;;6.70;40.65;101761.03;4975485;28;98915;-76
2022/03/03 03:29:24;;;;;;;43.78;21.83;;;;;;;6.73;39.83;101761.03;4977167;28;96754;-76
2022/03/03 03:31:50;;;;;;;50.40;21.73;;;;;;;6.74;40.28;101751.41;4970710;28;96785;-75
2022/03/03 03:34:17;;;;;;;44.22;22.02;;;;;;;6.96;39.94;101741.66;4978881;28;98007;-75
2022/03/03 03:36:43;;;;;;;42.28;21.25;;;;;;;6.38;40.86;101745.38;4976539;28;101038;-76
2022/03/03 03:39:10;;;;;;;47.08;21.50;;;;;;;6.71;40.38;101738.25;4977154;28;97477;-76
2022/03/03 03:41:36;;;;;;;43.78;21.58;;;;;;;6.65;40.97;101726.03;4979368;28;97388;-78
2022/03/03 03:44:03;;;;;;;41.30;20.63;;;;;;;6.55;41.77;101718.22;4975643;28;98166;-78
2022/03/03 03:46:33;;;;;;;48.67;21.63;;;;;;;6.48;42.08;101722.59;4976343;28;99304;-76
2022/03/03 03:49:03;;;;;;;48.72;22.05;;;;;;;6.21;42.20;101726.19;4973586;28;97034;-77
2022/03/03 03:51:31;;;;;;;48.15;22.17;;;;;;;6.32;41.51;101726.13;4979915;28;96980;-77
2022/03/03 03:54:03;;;;;;;49.10;21.77;;;;;;;6.20;42.46;101721.81;4979328;28;99610;-77
2022/03/03 03:56:32;;;;;;;46.15;22.10;;;;;;;6.21;43.37;101714.81;4973584;28;99751;-77
2022/03/03 03:58:58;;;;;;;41.58;20.42;;;;;;;6.66;42.28;101703.28;4976850;28;96887;-76
2022/03/03 04:01:27;;;;;;;44.58;22.52;;;;;;;6.15;43.05;101702.56;4973816;28;96853;-76
2022/03/03 04:03:55;;;;;;;43.22;20.95;;;;;;;6.05;43.11;101697.31;4972552;28;98871;-77
2022/03/03 04:06:21;;;;;;;45.58;22.02;;;;;;;6.31;41.40;101713.88;4975624;28;101569;-76
2022/03/03 04:08:49;;;;;;;44.83;22.20;;;;;;;6.17;41.90;101710.44;4973816;28;98809;-76
2022/03/03 04:11:16;;;;;;;42.67;23.45;;;;;;;6.20;42.32;101706.06;4973619;28;96964;-75
2022/03/03 04:13:42;;;;;;;49.20;22.83;;;;;;;5.98;42.63;101693.84;4985939;28;98218;-76
2022/03/03 04:16:10;;;;;;;47.10;21.85;;;;;;;5.98;42.72;101694.72;4976295;28;100391;-76
2022/03/03 04:18:37;;;;;;;45.75;21.95;;;;;;;5.95;43.04;101691.25;4981440;28;97530;-76
2022/03/03 04:21:09;;;;;;;45.78;22.23;;;;;;;6.19;43.19;101706.91;4983201;28;97609;-77
2022/03/03 04:23:35;;;;;;;52.08;22.67;;;;;;;6.23;42.62;101710.44;4975550;28;99323;-77
2022/03/03 04:26:02;;;;;;;43.65;22.23;;;;;;;6.04;43.05;101706.94;4981076;28;98728;-77
2022/03/03 04:28:30;;;;;;;44.72;22.10;;;;;;;5.11;44.52;101722.66;4985839;28;96841;-77
2022/03/03 04:30:56;;;;;;;46.20;22.17;;;;;;;5.19;44.87;101718.28;4976989;28;96924;-77
2022/03/03 04:33:23;;;;;;;46.03;21.92;;;;;;;5.09;44.59;101721.75;4980962;28;101199;-76
2022/03/03 04:35:52;;;;;;;50.47;23.05;;;;;;;5.03;45.02;101733.97;4984878;28;99318;-76
2022/03/03 04:38:22;;;;;;;43.58;21.58;;;;;;;5.32;44.55;101732.25;4981376;28;97165;-77
2022/03/03 04:40:48;;;;;;;43.90;21.17;;;;;;;4.87;45.72;101737.38;4983427;28;98987;-75
2022/03/03 04:45:59;;;;;;;43.08;21.15;;;;;;;5.12;44.16;101747.94;4989222;28;100160;-76
2022/03/03 04:48:29;;;;;;;50.30;21.63;;;;;;;5.69;43.24;101737.56;4995796;28;96864;-76
2022/03/03 04:50:57;;;;;;;43.70;21.10;;;;;;;5.14;43.74;101738.34;4986887;28;96891;-76
2022/03/03 04:53:25;;;;;;;49.22;22.35;;;;;;;4.68;45.55;101741.69;4975125;28;99616;-76
2022/03/03 04:55:52;;;;;;;54.72;25.30;;;;;;;4.96;44.88;101748.78;4974638;28;99199;-76
2022/03/03 04:58:19;;;;;;;47.35;20.67;;;;;;;4.44;46.38;101754.66;4985271;28;96816;-77
2022/03/03 05:00:48;;;;;;;45.72;21.23;;;;;;;4.45;45.95;101753.78;4986618;28;97475;-78
2022/03/03 05:03:14;;;;;;;39.28;20.50;;;;;;;4.54;46.44;101753.81;4974530;28;100899;-76
2022/03/03 05:05:41;;;;;;;40.75;20.80;;;;;;;4.46;46.42;101745.09;4979612;28;98785;-76
2022/03/03 05:08:08;;;;;;;40.22;20.25;;;;;;;4.77;45.73;101740.00;4994439;28;96656;-75
2022/03/03 05:10:36;;;;;;;40.00;20.33;;;;;;;5.11;44.62;101738.38;5006796;28;95966;-75
2022/03/03 05:13:08;;;;;;;42.33;21.48;;;;;;;5.24;44.79;101727.91;4998686;28;97705;-76
2022/03/03 05:15:36;;;;;;;40.97;19.90;;;;;;;5.53;44.00;101723.56;5002750;28;101315;-77
2022/03/03 05:18:07;;;;;;;42.53;21.02;;;;;;;5.78;43.58;101725.31;4997341;28;96576;-75
2022/03/03 05:20:38;;;;;;;39.55;20.20;;;;;;;5.35;44.20;101736.66;4980310;28;97073;-74
2022/03/03 05:23:05;;;;;;;40.75;20.13;;;;;;;5.67;43.40;101723.56;4977164;28;98955;-74
2022/03/03 05:25:33;;;;;;;40.08;19.70;;;;;;;5.57;43.41;101717.47;4980907;28;96816;-75
2022/03/03 05:28:04;;;;;;;35.83;19.38;;;;;;;4.61;46.20;101713.72;4978026;28;96827;-76
2022/03/03 05:30:31;;;;;;;39.42;19.45;;;;;;;5.09;44.93;101703.41;4979205;28;96599;-75
2022/03/03 05:33:03;;;;;;;46.42;19.63;;;;;;;4.79;46.06;101714.66;4982659;28;98291;-75
2022/03/03 05:35:32;;;;;;;43.60;20.23;;;;;;;4.60;47.06;101718.09;4991342;28;98099;-75
2022/03/03 05:37:58;;;;;;;42.25;20.70;;;;;;;4.92;45.93;101702.50;4990836;28;97749;-74
2022/03/03 05:40:27;;;;;;;44.05;21.25;;;;;;;4.99;45.90;101698.16;4987908;28;96907;-76
2022/03/03 05:42:54;;;;;;;40.47;20.27;;;;;;;5.27;45.43;101696.44;4980697;28;100908;-77
2022/03/03 05:45:26;;;;;;;41.40;20.65;;;;;;;5.40;45.35;101687.72;4982537;28;98243;-76
2022/03/03 05:47:53;;;;;;;40.88;21.08;;;;;;;5.44;44.85;101684.25;4980689;28;99037;-76
2022/03/03 05:50:20;;;;;;;42.75;21.75;;;;;;;5.36;45.32;101685.97;4977787;28;97476;-75
2022/03/03 05:52:52;;;;;;;47.78;22.75;;;;;;;5.45;44.92;101678.09;4982999;28;99006;-75
2022/03/03 05:55:22;;;;;;;42.30;21.00;;;;;;;5.55;44.84;101674.63;4982846;28;98790;-75
2022/03/03 05:57:54;;;;;;;41.95;21.38;;;;;;;5.54;45.16;101678.13;4979592;28;96803;-76
2022/03/03 06:00:28;;;;;;;44.08;21.30;;;;;;;5.50;44.97;101687.75;4990378;28;96997;-76
2022/03/03 06:02:58;;;;;;;44.95;21.55;;;;;;;5.21;45.96;101694.69;4976427;28;98964;-76
2022/03/03 06:05:27;;;;;;;43.28;21.67;;;;;;;4.88;46.62;101692.00;4985301;28;98738;-78
2022/03/03 06:08:14;;;;;;;43.83;21.50;;;;;;;4.66;47.59;101707.63;4997588;28;97497;-77
2022/03/03 06:10:56;;;;;;;42.90;22.02;;;;;;;3.83;49.91;101728.97;4994369;28;96968;-76
2022/03/03 06:13:28;;;;;;;46.85;21.75;;;;;;;3.97;50.41;101729.06;4985539;28;96725;-77
2022/03/03 06:15:58;;;;;;;42.45;21.98;;;;;;;4.19;49.72;101736.22;4986620;28;100351;-76
2022/03/03 06:18:28;;;;;;;50.30;23.38;;;;;;;4.02;49.88;101729.97;4997728;28;97575;-76
2022/03/03 06:20:55;;;;;;;47.10;23.00;;;;;;;3.95;50.69;101736.03;4996081;28;96075;-76
2022/03/03 06:23:22;;;;;;;46.33;22.63;;;;;;;3.98;51.19;101747.41;4988467;28;97840;-76
2022/03/03 06:25:57;;;;;;;52.08;24.23;;;;;;;4.13;50.50;101751.00;4977322;28;98067;-79
2022/03/03 06:28:24;;;;;;;50.65;24.98;;;;;;;4.42;50.11;101744.19;4980192;28;96732;-80
2022/03/03 06:30:51;;;;;;;55.22;24.08;;;;;;;4.44;49.56;101742.44;4971445;28;96760;-76
2022/03/03 06:33:21;;;;;;;51.45;25.42;;;;;;;3.86;51.48;101751.66;5039635;22;99954;-76
2022/03/03 06:35:51;;;;;;;54.85;25.30;;;;;;;3.65;51.99;101741.03;5001064;28;99128;-77
2022/03/03 06:38:21;;;;;;;53.00;26.17;;;;;;;3.55;52.93;101746.16;5001534;28;98330;-78
2022/03/03 06:40:50;;;;;;;52.38;24.75;;;;;;;3.39;53.27;101753.84;5006445;28;97078;-79
2022/03/03 06:43:29;;;;;;;55.10;26.15;;;;;;;3.08;54.98;101753.53;5001032;28;99029;-79
2022/03/03 06:45:59;;;;;;;56.80;25.73;;;;;;;3.19;54.46;101757.13;5006370;28;98111;-77
2022/03/03 06:48:29;;;;;;;52.28;25.13;;;;;;;3.24;54.88;101775.47;5004497;28;97741;-77
2022/03/03 06:50:57;;;;;;;56.63;25.08;;;;;;;3.03;55.79;101777.81;5017492;27;97034;-78
2022/03/03 06:53:30;;;;;;;56.90;27.63;;;;;;;3.27;54.55;101775.50;5017299;27;98977;-74
2022/03/03 06:56:07;;;;;;;54.10;26.35;;;;;;;3.95;52.74;101767.41;5029047;27;97980;-78
2022/03/03 06:58:35;;;;;;;;;;;;;;;3.85;52.55;101769.09;5009349;28;97551;-78
2022/03/03 07:03:57;;;;;;;58.50;26.75;;;;;;;2.93;56.23;101779.47;4965533;28;99127;-76
2022/03/03 07:06:49;;;;;;;64.50;28.80;;;;;;;2.36;58.19;101788.25;5005404;28;98986;-78
2022/03/03 07:09:18;;;;;;;68.65;30.15;;;;;;;2.51;58.71;101779.78;5008594;28;97084;-75
2022/03/03 07:11:59;;;;;;;96.60;40.80;;;;;;;3.34;55.45;101781.69;5003243;28;99526;-78
2022/03/03 07:14:26;;;;;;;66.78;29.05;;;;;;;2.74;57.71;101786.19;4996128;28;98939;-75
2022/03/03 07:17:09;;;;;;;75.82;33.15;;;;;;;2.37;59.01;101789.13;4996781;28;100242;-75
2022/03/03 07:19:53;;;;;;;71.72;32.90;;;;;;;2.09;60.68;101798.31;4993079;28;97709;-75
2022/03/03 07:22:31;;;;;;;85.47;33.97;;;;;;;2.49;60.16;101791.94;4993963;28;97722;-73
2022/03/03 07:25:09;;;;;;;76.15;31.48;;;;;;;1.92;61.79;101795.41;4996628;28;100031;-73
2022/03/03 07:27:40;;;;;;;81.03;32.92;;;;;;;1.87;62.61;101802.28;4998098;28;98806;-73
2022/03/03 07:30:15;;;;;;;75.80;32.83;;;;;;;2.30;61.06;101805.56;4995027;28;98654;-76
2022/03/03 07:32:48;;;;;;;81.57;33.92;;;;;;;2.52;60.69;101797.19;4998803;28;98710;-74
2022/03/03 07:35:20;;;;;;;78.15;34.17;;;;;;;2.92;59.46;101802.94;4992284;28;100925;-74
2022/03/03 07:37:55;;;;;;;74.88;33.47;;;;;;;2.96;58.10;101805.59;4992188;28;100107;-76
2022/03/03 07:40:27;;;;;;;87.25;35.95;;;;;;;2.56;60.47;101805.97;4994356;28;98232;-79
2022/03/03 07:42:57;;;;;;;86.50;34.95;;;;;;;2.48;60.49;101798.03;4988999;28;97846;-75
2022/03/03 07:45:23;;;;;;;74.85;33.50;;;;;;;3.85;56.47;101796.97;4996263;28;99694;-75
2022/03/03 07:48:01;;;;;;;84.57;36.05;;;;;;;4.37;54.42;101799.13;4993344;28;100632;-80
2022/03/03 07:50:42;;;;;;;77.40;33.35;;;;;;;4.64;53.14;101802.75;4998971;28;98350;-77
2022/03/03 07:53:13;;;;;;;72.25;33.72;;;;;;;4.84;52.99;101795.88;4989466;28;98249;-78
2022/03/03 07:55:50;;;;;;;79.00;33.72;;;;;;;3.58;55.79;101805.44;4993209;28;99202;-76
2022/03/03 07:58:19;;;;;;;83.68;35.03;;;;;;;3.80;55.90;101802.16;4999098;28;101836;-77
2022/03/03 08:00:51;;;;;;;72.00;32.42;;;;;;;4.12;54.49;101807.66;4995683;28;97058;-77
2022/03/03 08:03:20;;;;;;;84.03;33.88;;;;;;;4.45;53.96;101804.41;4994967;28;98405;-78
2022/03/03 08:05:51;;;;;;;80.03;34.58;;;;;;;4.72;52.78;101811.53;4998894;28;101141;-78
2022/03/03 08:08:22;;;;;;;79.80;34.95;;;;;;;4.74;52.30;101815.03;4995671;28;98765;-76
2022/03/03 08:10:49;;;;;;;72.70;32.55;;;;;;;4.83;52.99;101820.31;4993969;28;96838;-76
2022/03/03 08:13:18;;;;;;;85.22;33.58;;;;;;;4.62;53.22;101817.56;4999721;28;96919;-77
2022/03/03 08:15:46;;;;;;;79.53;34.13;;;;;;;4.10;55.05;101825.06;4997628;28;99414;-77
2022/03/03 08:18:14;;;;;;;76.93;33.53;;;;;;;4.92;52.73;101815.13;4999548;28;99292;-78
2022/03/03 08:20:41;;;;;;;84.10;33.95;;;;;;;5.16;51.45;101819.59;4999625;28;99048;-76
2022/03/03 08:23:12;;;;;;;72.53;32.50;;;;;;;4.32;53.59;101824.38;5015590;22;98642;-82
2022/03/03 08:25:39;;;;;;;80.10;32.25;;;;;;;3.62;55.36;101830.72;4983960;28;101751;-82
2022/03/03 08:28:06;;;;;;;72.35;32.30;;;;;;;3.96;55.94;101834.53;4975669;28;98790;-81
2022/03/03 08:30:34;;;;;;;81.32;31.67;;;;;;;4.11;55.23;101828.56;4980669;28;98457;-80
2022/03/03 08:33:06;;;;;;;71.78;30.92;;;;;;;4.56;53.52;101838.47;4987733;28;96933;-81
2022/03/03 08:35:40;;;;;;;80.07;32.72;;;;;;;4.52;53.98;101837.59;4971580;28;97781;-82
2022/03/03 08:38:08;;;;;;;69.07;30.40;;;;;;;4.14;54.87;101831.19;4970769;28;99412;-82
2022/03/03 08:40:37;;;;;;;73.30;31.38;;;;;;;3.45;56.64;101833.19;4967018;28;97307;-81
2022/03/03 08:43:07;;;;;;;73.20;31.05;;;;;;;3.66;56.87;101840.38;4980825;28;97395;-80
2022/03/03 08:46:02;;;;;;;76.85;32.65;;;;;;;4.00;55.64;101831.09;4974329;28;97857;-82
2022/03/03 08:49:10;;;;;;;75.10;30.73;;;;;;;4.10;55.90;101840.75;4878630;28;98555;-83
2022/03/03 08:52:37;;;;;;;;;;;;;;;;;;;;;
2022/03/03 08:55:26;;;;;;;66.18;28.85;;;;;;;4.52;53.28;101840.22;4897073;28;119734;-81
2022/03/03 08:58:14;;;;;;;65.28;29.48;;;;;;;4.13;54.71;101837.31;4908609;28;98376;-82
2022/03/03 09:01:04;;;;;;;64.70;28.73;;;;;;;4.19;55.48;101846.09;4976708;28;100625;-81
2022/03/03 09:06:52;;;;;;;63.83;26.52;;;;;;;3.64;56.43;101847.31;4917310;28;97046;-83
2022/03/03 09:15:47;;;;;;;61.22;27.05;;;;;;;4.70;53.33;101839.44;4913408;28;97209;-81
2022/03/03 09:18:14;;;;;;;62.15;27.45;;;;;;;4.87;53.45;101844.75;4974660;28;98813;-81
2022/03/03 09:24:45;;;;;;;61.05;27.35;;;;;;;4.73;53.11;101844.69;4762804;29;98335;-82
2022/03/03 09:32:12;;;;;;;;;;;;;;;;;;;;;
2022/03/03 09:42:14;;;;;;;;;;;;;;;;;;;;;
2022/03/03 09:44:41;;;;;;;45.67;21.83;;;;;;;3.90;56.50;101863.25;4817137;29;122904;-81
2022/03/03 09:47:08;;;;;;;46.28;21.25;;;;;;;3.70;57.50;101864.78;4843631;28;98702;-82
2022/03/03 09:49:35;;;;;;;45.72;21.52;;;;;;;3.90;56.08;101855.41;4859423;28;96878;-80
2022/03/03 09:52:12;;;;;;;44.92;21.25;;;;;;;4.10;55.94;101859.06;4951038;28;97049;-80
2022/03/03 09:54:40;;;;;;;42.47;20.83;;;;;;;5.22;52.83;101851.06;4977721;28;97005;-83
2022/03/03 09:57:19;;;;;;;;;;;;;;;;;;;;;
2022/03/03 10:00:03;;;;;;;;;;;;;;;;;;;;;
2022/03/03 10:02:32;;;;;;;38.65;19.55;;;;;;;5.00;53.50;101850.06;4969603;28;120810;-81
2022/03/03 10:05:00;;;;;;;42.15;19.48;;;;;;;5.53;51.68;101852.03;4965101;28;97251;-81
2022/03/03 10:07:39;;;;;;;37.83;19.08;;;;;;;4.81;53.78;101856.97;4974255;28;100713;-82
2022/03/03 10:13:58;;;;;;;35.22;17.67;;;;;;;4.58;54.31;101858.59;4848872;28;97311;-80
2022/03/03 10:16:41;;;;;;;38.05;18.25;;;;;;;4.13;55.77;101863.47;4962825;28;98003;-81
2022/03/03 10:22:58;;;;;;;;;;;;;;;;;;;;;
2022/03/03 10:25:48;;;;;;;39.92;17.13;;;;;;;4.69;55.11;101858.63;4994046;28;121229;-81
2022/03/03 10:28:25;;;;;;;36.38;15.20;;;;;;;4.14;56.68;101867.81;4995731;28;97056;-80
2022/03/03 10:31:01;;;;;;;32.95;16.27;;;;;;;4.45;55.99;101856.75;4991922;28;97036;-80
2022/03/03 10:33:59;;;;;;;31.45;15.85;;;;;;;5.81;52.54;101856.47;4989354;28;99648;-82
2022/03/03 10:36:35;;;;;;;35.55;16.33;;;;;;;6.06;50.91;101859.13;4975658;28;97368;-82
2022/03/03 10:39:22;;;;;;;34.58;16.15;;;;;;;5.79;51.37;101868.69;4973739;28;97509;-82
2022/03/03 10:42:14;;;;;;;33.67;15.50;;;;;;;4.94;53.62;101870.13;4969917;28;100517;-82
2022/03/03 10:45:15;;;;;;;34.42;15.40;;;;;;;5.68;52.53;101861.69;4975538;28;100349;-83
2022/03/03 10:48:18;;;;;;;33.22;15.13;;;;;;;6.23;50.86;101860.91;4971621;28;97540;-82
2022/03/03 10:51:16;;;;;;;28.05;13.20;;;;;;;6.49;50.03;101870.53;4978511;28;97277;-82
2022/03/03 10:54:09;;;;;;;28.70;12.25;;;;;;;4.72;53.98;101872.63;4982233;28;98754;-81
2022/03/03 10:57:02;;;;;;;;;;;;;;;;;;;;;
2022/03/03 11:00:00;;;;;;;26.35;12.82;;;;;;;5.48;53.44;101865.13;4995633;28;125113;-83
2022/03/03 11:02:56;;;;;;;31.38;14.45;;;;;;;5.37;53.71;101876.44;4968384;28;96473;-82
2022/03/03 11:05:26;;;;;;;32.93;14.37;;;;;;;4.98;54.63;101871.91;4967494;28;98301;-80
2022/03/03 11:07:58;;;;;;;32.58;14.70;;;;;;;4.72;55.45;101869.16;4992706;28;100625;-81
2022/03/03 11:10:35;;;;;;;31.13;14.05;;;;;;;5.49;53.88;101872.13;4985663;28;96675;-82
2022/03/03 11:13:12;;;;;;;;;;;;;;;6.38;51.15;101860.88;4995171;28;96739;-84
2022/03/03 11:15:44;;;;;;;34.55;14.05;;;;;;;5.89;52.20;101854.75;4994985;28;100607;-81
2022/03/03 11:18:13;;;;;;;36.22;14.07;;;;;;;6.28;51.47;101847.78;4992409;28;96772;-80
2022/03/03 11:20:40;;;;;;;27.67;13.13;;;;;;;6.77;49.70;101851.19;4997416;28;97327;-80
2022/03/03 11:23:07;;;;;;;33.30;13.70;;;;;;;6.58;50.05;101841.59;4990018;28;96490;-81
2022/03/03 11:25:38;;;;;;;33.20;13.35;;;;;;;6.25;50.56;101853.00;4994696;28;97814;-82
2022/03/03 11:28:09;;;;;;;28.83;12.85;;;;;;;6.18;50.75;101846.91;4990136;28;99788;-81
2022/03/03 11:30:39;;;;;;;27.67;13.00;;;;;;;5.65;52.34;101854.66;4987810;28;96783;-80
2022/03/03 11:33:28;;;;;;;29.13;13.95;;;;;;;5.32;53.46;101862.44;4982789;28;96752;-81
2022/03/03 11:35:59;;;;;;;28.48;13.35;;;;;;;5.71;52.59;101844.19;4991534;28;99029;-80
2022/03/03 11:38:31;;;;;;;31.08;14.18;;;;;;;5.64;52.81;101845.06;4989528;28;100112;-81
2022/03/03 11:41:04;;;;;;;31.90;14.07;;;;;;;5.64;53.43;101846.81;4987390;28;99131;-82
2022/03/03 11:43:55;;;;;;;;;;;;;;;;;;;;;
2022/03/03 11:46:46;;;;;;;28.60;14.00;;;;;;;6.14;51.27;101845.16;4980178;28;125084;-82
2022/03/03 11:49:20;;;;;;;30.10;13.05;;;;;;;5.70;53.26;101854.69;4973425;28;99015;-80
2022/03/03 11:51:53;;;;;;;27.23;13.60;;;;;;;6.26;52.37;101847.78;4990574;28;97266;-79
2022/03/03 11:54:30;;;;;;;32.63;12.45;;;;;;;5.76;52.92;101857.34;4990122;28;97269;-79
2022/03/03 11:57:27;;;;;;;28.55;12.35;;;;;;;5.59;53.81;101857.28;4987265;28;98505;-80
2022/03/03 11:59:59;;;;;;;25.25;11.50;;;;;;;5.38;54.22;101847.59;4973959;28;99944;-81
2022/03/03 12:02:30;;;;;;;27.98;11.77;;;;;;;5.65;53.64;101854.66;4969789;28;97675;-79
2022/03/03 12:05:37;;;;;;;26.45;12.07;;;;;;;5.39;54.10;101853.72;4970801;28;97058;-80
2022/03/03 12:08:04;;;;;;;26.42;11.68;;;;;;;5.35;54.93;101838.88;4969448;28;100818;-78
2022/03/03 12:10:32;;;;;;;29.40;12.02;;;;;;;5.21;55.43;101837.06;4967382;28;99336;-76
2022/03/03 12:13:26;;;;;;;29.25;12.48;;;;;;;5.18;55.35;101842.31;4969298;28;97059;-83
2022/03/03 12:16:12;;;;;;;27.75;12.13;;;;;;;6.25;52.71;101834.63;4968428;28;99296;-80
2022/03/03 12:18:39;;;;;;;39.83;12.38;;;;;;;6.39;52.37;101823.25;4966533;28;99304;-81
2022/03/03 12:21:34;;;;;;;27.75;13.13;;;;;;;6.70;51.07;101829.31;4969984;28;98002;-81
2022/03/03 12:24:31;;;;;;;25.60;12.05;;;;;;;6.09;51.74;101841.66;4974939;28;97628;-79
2022/03/03 12:27:15;;;;;;;27.42;12.98;;;;;;;6.96;50.27;101833.63;4970620;28;96755;-82
2022/03/03 12:30:09;;;;;;;29.05;11.57;;;;;;;6.76;49.86;101834.56;4967136;28;98890;-82
2022/03/03 12:32:41;;;;;;;23.95;11.15;;;;;;;6.33;51.01;101841.66;4950151;28;99240;-81
2022/03/03 12:42:01;;;;;;;25.92;11.30;;;;;;;5.56;53.82;101833.69;4899438;28;97429;-76
2022/03/03 12:44:40;;;;;;;31.25;11.93;;;;;;;5.52;53.87;101835.41;4927587;28;98971;-82
2022/03/03 12:48:06;;;;;;;;;;;;;;;;;;;;;